Terminal Aerodrome Forecast
Issued by NWS

Home | Current Version | Previous Version | Text Only | Print | Product List | Glossary On
Versions: 1 2 3 4 5 6 7 8 9 10 11 12 13 14 15 16
150
FTAK31 PAJN 121138
TAFAWG
TAF
PAWG 121138Z 1212/1312 15010G20KT P6SM -RA SCT020 BKN030 OVC050
     FM121800 12009KT 4SM -SHRA BR SCT020 BKN040 OVC060
     FM122100 11005KT P6SM VCSH SCT030 BKN050 OVC070
     FM130000 12006KT P6SM VCSH FEW030 BKN060
     FM130600 11004KT 5SM BR BKN060 OVC080
      AMD LTD TO CLD VIS AND WIND 1212/1215=

USA.gov is the U.S. government's official web portal to all federal, state and local government web resources and services.